createdAt,value
2023-01-09T00:01:42.340Z,103089.31
2023-01-09T00:04:11.711Z,103095.50
2023-01-09T00:06:46.562Z,103091.81
2023-01-09T00:09:23.943Z,103093.66
2023-01-09T00:11:55.123Z,103089.19
2023-01-09T00:14:24.443Z,103093.56
2023-01-09T00:16:55.625Z,103093.66
2023-01-09T00:19:24.821Z,103088.44
2023-01-09T00:21:52.625Z,103089.22
2023-01-09T00:24:20.887Z,103087.41
2023-01-09T00:26:49.987Z,103084.72
2023-01-09T00:29:17.768Z,103087.44
2023-01-09T00:31:45.720Z,103083.09
2023-01-09T00:34:14.633Z,103079.69
2023-01-09T00:36:43.015Z,103078.78
2023-01-09T00:39:12.040Z,103077.94
2023-01-09T00:41:48.360Z,103070.06
2023-01-09T00:44:39.529Z,103072.66
2023-01-09T00:47:14.689Z,103059.66
2023-01-09T00:49:48.264Z,103056.22
2023-01-09T00:52:17.324Z,103053.63
2023-01-09T00:54:48.327Z,103062.34
2023-01-09T00:57:17.100Z,103051.00
2023-01-09T00:59:45.713Z,103043.19
2023-01-09T01:02:13.806Z,103035.41
2023-01-09T01:05:00.274Z,103031.94
2023-01-09T01:07:43.003Z,103027.66
2023-01-09T01:10:16.661Z,103025.88
2023-01-09T01:12:45.756Z,103029.38
2023-01-09T01:15:14.802Z,103014.56
2023-01-09T01:17:45.299Z,103024.16
2023-01-09T01:20:17.507Z,103017.19
2023-01-09T01:22:47.291Z,103013.81
2023-01-09T01:25:20.086Z,103015.56
2023-01-09T01:27:49.659Z,103008.66
2023-01-09T01:30:18.615Z,103014.59
2023-01-09T01:32:47.494Z,103000.75
2023-01-09T01:35:16.583Z,103005.03
2023-01-09T01:37:44.673Z,102998.13
2023-01-09T01:40:13.555Z,102998.19
2023-01-09T01:42:54.433Z,102996.44
2023-01-09T01:45:28.464Z,102994.75
2023-01-09T01:48:14.524Z,102987.78
2023-01-09T01:51:04.703Z,102990.38
2023-01-09T01:53:46.825Z,102979.97
2023-01-09T01:56:37.338Z,102979.09
2023-01-09T01:59:27.051Z,102980.72
2023-01-09T02:01:59.812Z,102975.41
2023-01-09T02:04:33.045Z,102977.22
2023-01-09T02:07:05.171Z,102977.19
2023-01-09T02:09:36.163Z,102978.09
2023-01-09T02:12:20.394Z,102984.22
2023-01-09T02:14:53.720Z,102988.63
2023-01-09T02:17:58.665Z,102982.44
2023-01-09T02:20:57.953Z,102982.53
2023-01-09T02:23:46.874Z,102977.25
2023-01-09T02:26:20.616Z,102980.66
2023-01-09T02:28:57.723Z,102979.84
2023-01-09T02:31:47.036Z,102972.91
2023-01-09T02:34:27.172Z,102974.59
2023-01-09T02:37:32.318Z,102972.06
2023-01-09T02:40:28.460Z,102973.78
2023-01-09T02:43:00.582Z,102972.06
2023-01-09T02:45:28.881Z,102967.66
2023-01-09T02:47:57.776Z,102966.88
2023-01-09T02:51:07.134Z,102967.72
2023-01-09T02:54:10.813Z,102960.69
2023-01-09T02:56:53.066Z,102963.38
2023-01-09T02:59:29.544Z,102959.81
2023-01-09T03:02:16.120Z,102951.16
2023-01-09T03:04:50.987Z,102962.28
2023-01-09T03:07:42.935Z,102965.75
2023-01-09T03:10:29.507Z,102967.59
2023-01-09T03:13:01.730Z,102968.50
2023-01-09T03:15:36.599Z,102957.34
2023-01-09T03:18:12.017Z,102952.94
2023-01-09T03:20:41.807Z,102956.41
2023-01-09T03:23:10.804Z,102958.03
2023-01-09T03:25:39.691Z,102953.59
2023-01-09T03:28:21.022Z,102966.69
2023-01-09T03:30:49.676Z,102964.91
2023-01-09T03:33:17.737Z,102967.53
2023-01-09T03:35:47.226Z,102963.25
2023-01-09T03:38:15.702Z,102965.00
2023-01-09T03:40:46.374Z,102960.59
2023-01-09T03:43:15.501Z,102954.63
2023-01-09T03:45:44.098Z,102959.72
2023-01-09T03:48:13.622Z,102957.09
2023-01-09T03:50:47.689Z,102957.94
2023-01-09T03:53:22.829Z,102955.28
2023-01-09T03:55:53.211Z,102958.06
2023-01-09T03:58:23.420Z,102963.19
2023-01-09T04:01:00.517Z,102956.13
2023-01-09T04:03:32.388Z,102953.75
2023-01-09T04:06:00.809Z,102938.97
2023-01-09T04:08:31.277Z,102945.88
2023-01-09T04:10:59.671Z,102940.53
2023-01-09T04:13:32.179Z,102942.28
2023-01-09T04:16:00.788Z,102944.16
2023-01-09T04:18:30.945Z,102949.25
2023-01-09T04:20:58.752Z,102951.00
2023-01-09T04:23:28.045Z,102955.34
2023-01-09T04:25:56.881Z,102954.44
2023-01-09T04:28:26.250Z,102962.28
2023-01-09T04:30:54.664Z,102968.44
2023-01-09T04:33:24.003Z,102958.88
2023-01-09T04:35:53.592Z,102968.41
2023-01-09T04:38:22.998Z,102963.34
2023-01-09T04:40:50.784Z,102973.63
2023-01-09T04:43:20.076Z,102972.69
2023-01-09T04:45:49.423Z,102971.03
2023-01-09T04:48:17.624Z,102978.88
2023-01-09T04:50:48.105Z,102982.34
2023-01-09T04:53:15.795Z,102974.59
2023-01-09T04:55:45.770Z,102984.06
2023-01-09T04:58:16.692Z,102989.41
2023-01-09T05:00:45.466Z,102985.97
2023-01-09T05:03:13.737Z,102990.28
2023-01-09T05:05:44.697Z,102979.75
2023-01-09T05:08:13.851Z,102979.78
2023-01-09T05:10:44.363Z,102973.81
2023-01-09T05:13:13.893Z,102986.75
2023-01-09T05:15:43.289Z,102972.84
2023-01-09T05:18:11.736Z,102978.97
2023-01-09T05:20:40.429Z,102973.69
2023-01-09T05:23:09.849Z,102978.88
2023-01-09T05:25:41.153Z,102979.69
2023-01-09T05:28:12.965Z,102978.78
2023-01-09T05:30:43.411Z,102987.50
2023-01-09T05:33:12.888Z,102990.09
2023-01-09T05:35:45.260Z,102983.97
2023-01-09T05:38:14.378Z,103000.50
2023-01-09T05:40:43.290Z,102989.38
2023-01-09T05:43:13.238Z,102980.63
2023-01-09T05:45:43.432Z,102991.78
2023-01-09T05:48:11.843Z,102992.72
2023-01-09T05:50:41.455Z,102996.19
2023-01-09T05:53:10.122Z,102992.72
2023-01-09T05:55:40.224Z,102984.06
2023-01-09T05:58:09.828Z,102990.16
2023-01-09T06:00:37.916Z,102975.47
2023-01-09T06:03:07.502Z,102971.19
2023-01-09T06:05:35.738Z,102967.78
2023-01-09T06:08:04.700Z,102968.69
2023-01-09T06:10:33.748Z,102964.38
2023-01-09T06:13:02.859Z,102960.03
2023-01-09T06:15:32.959Z,102961.78
2023-01-09T06:18:01.780Z,102960.94
2023-01-09T06:20:31.542Z,102955.84
2023-01-09T06:23:00.706Z,102960.09
2023-01-09T06:25:28.574Z,102957.53
2023-01-09T06:27:56.764Z,102953.19
2023-01-09T06:30:28.174Z,102958.44
2023-01-09T06:32:56.933Z,102960.09
2023-01-09T06:35:26.215Z,102965.38
2023-01-09T06:37:54.785Z,102954.19
2023-01-09T06:40:23.891Z,102948.13
2023-01-09T06:42:52.733Z,102942.88
2023-01-09T06:45:23.292Z,102949.84
2023-01-09T06:47:51.933Z,102942.97
2023-01-09T06:50:21.396Z,102948.19
2023-01-09T06:52:49.634Z,102949.09
2023-01-09T06:55:19.639Z,102956.84
2023-01-09T06:57:47.677Z,102965.56
2023-01-09T07:00:16.948Z,102967.34
2023-01-09T07:02:45.881Z,102965.63
2023-01-09T07:05:15.289Z,102968.22
2023-01-09T07:07:44.450Z,102963.91
2023-01-09T07:10:12.719Z,102960.50
2023-01-09T07:12:41.995Z,102963.97
2023-01-09T07:15:11.277Z,102965.66
2023-01-09T07:17:41.214Z,102965.63
2023-01-09T07:20:10.545Z,102969.97
2023-01-09T07:22:39.435Z,102971.63
2023-01-09T07:25:07.978Z,102977.75
2023-01-09T07:27:40.750Z,102970.75
2023-01-09T07:30:18.824Z,102973.38
2023-01-09T07:32:50.187Z,102970.56
2023-01-09T07:35:19.302Z,102964.56
2023-01-09T07:37:48.720Z,102972.31
2023-01-09T07:40:19.881Z,102980.28
2023-01-09T07:42:55.567Z,102981.75
2023-01-09T07:45:23.710Z,102965.06
2023-01-09T07:47:53.117Z,102972.16
2023-01-09T07:50:21.736Z,102964.97
2023-01-09T07:52:50.655Z,102960.50
2023-01-09T07:55:19.533Z,102964.00
2023-01-09T07:57:52.572Z,102953.34
2023-01-09T08:00:21.495Z,102961.94
2023-01-09T08:02:54.659Z,102966.91
2023-01-09T08:05:27.589Z,102967.59
2023-01-09T08:07:57.864Z,102979.84
2023-01-09T08:10:26.927Z,102973.50
2023-01-09T08:12:54.654Z,102969.09
2023-01-09T08:15:23.660Z,102965.19
2023-01-09T10:35:56.531Z,102777.63
2023-01-09T10:38:34.006Z,102765.59
2023-01-09T10:41:08.082Z,102769.66
2023-01-09T10:44:04.839Z,102774.47
2023-01-09T10:46:55.419Z,102772.06
2023-01-09T10:49:24.616Z,102765.00
2023-01-09T10:52:30.819Z,102772.22
2023-01-09T10:55:25.567Z,102771.53
2023-01-09T10:58:04.925Z,102768.94
2023-01-09T11:00:34.507Z,102766.22
2023-01-09T11:03:04.142Z,102754.03
2023-01-09T11:05:32.933Z,102759.13
2023-01-09T11:08:22.321Z,102752.75
2023-01-09T11:10:54.375Z,102751.94
2023-01-09T11:13:30.094Z,102752.16
2023-01-09T11:16:20.082Z,102752.59
2023-01-09T11:19:03.075Z,102746.78
2023-01-09T11:21:38.440Z,102744.72
2023-01-09T11:24:21.691Z,102751.81
2023-01-09T11:26:53.253Z,102747.25
2023-01-09T11:29:26.971Z,102746.69
2023-01-09T11:32:18.005Z,102742.28
2023-01-09T11:34:47.736Z,102741.59
2023-01-09T11:37:27.991Z,102731.47
2023-01-09T11:40:00.453Z,102732.19
2023-01-09T11:42:52.264Z,102738.09
2023-01-09T11:45:35.095Z,102726.88
2023-01-09T11:48:17.938Z,102740.22
2023-01-09T11:50:55.494Z,102733.31
2023-01-09T11:53:25.584Z,102729.63
2023-01-09T11:56:07.109Z,102730.97
2023-01-09T11:58:36.954Z,102729.22
2023-01-09T12:01:39.573Z,102727.47
2023-01-09T12:04:36.181Z,102723.78
2023-01-09T12:07:04.435Z,102728.03
2023-01-09T12:09:51.271Z,102731.97
2023-01-09T12:12:25.618Z,102731.47
2023-01-09T12:15:32.622Z,102731.09
2023-01-09T12:18:24.718Z,102728.78
2023-01-09T12:21:34.588Z,102728.97
2023-01-09T12:24:31.429Z,102719.63
2023-01-09T12:27:40.827Z,102726.06
2023-01-09T12:30:23.938Z,102739.00
2023-01-09T12:33:17.268Z,102736.47
2023-01-09T12:36:11.140Z,102730.88
2023-01-09T12:38:54.476Z,102741.22
2023-01-09T12:42:20.738Z,102745.78
2023-01-09T12:45:41.210Z,102743.66
2023-01-09T12:48:47.014Z,102750.41
2023-01-09T12:51:51.974Z,102740.50
2023-01-09T12:54:23.482Z,102751.94
2023-01-09T12:57:04.837Z,102755.63
2023-01-09T12:59:40.389Z,102741.41
2023-01-09T13:02:39.482Z,102746.56
2023-01-09T13:05:16.092Z,102751.22
2023-01-09T13:07:55.038Z,102754.34
2023-01-09T13:10:42.255Z,102753.78
2023-01-09T13:13:17.629Z,102756.66
2023-01-09T13:16:02.729Z,102752.25
2023-01-09T13:18:44.193Z,102758.69
2023-01-09T13:21:14.403Z,102762.22
2023-01-09T13:23:52.333Z,102764.69
2023-01-09T13:26:29.227Z,102765.56
2023-01-09T13:29:03.482Z,102764.06
2023-01-09T13:31:52.508Z,102772.34
2023-01-09T13:34:25.250Z,102774.94
2023-01-09T13:36:58.625Z,102777.97
2023-01-09T13:39:34.228Z,102771.28
2023-01-09T13:42:29.563Z,102768.31
2023-01-09T13:45:25.569Z,102785.03
2023-01-09T13:48:18.403Z,102772.59
2023-01-09T13:50:48.478Z,102771.53
2023-01-09T13:53:25.403Z,102773.59
2023-01-09T13:55:59.842Z,102768.19
2023-01-09T13:58:55.335Z,102760.06
2023-01-09T14:01:38.880Z,102768.66
2023-01-09T14:04:16.458Z,102759.25
2023-01-09T14:07:22.721Z,102764.53
2023-01-09T14:09:58.522Z,102768.75
2023-01-09T14:12:31.283Z,102772.34
2023-01-09T14:15:02.519Z,102768.03
2023-01-09T14:17:35.494Z,102762.88
2023-01-09T14:20:25.226Z,102765.38
2023-01-09T14:23:22.869Z,102763.28
2023-01-09T14:25:55.382Z,102773.97
2023-01-09T14:28:27.822Z,102771.25
2023-01-09T14:30:58.929Z,102782.28
2023-01-09T14:33:30.092Z,102780.56
2023-01-09T14:36:22.012Z,102777.38
2023-01-09T14:39:10.237Z,102777.47
2023-01-09T14:42:09.424Z,102781.94
2023-01-09T14:44:44.246Z,102782.22
2023-01-09T14:47:15.577Z,102779.06
2023-01-09T14:49:50.500Z,102778.84
2023-01-09T14:52:32.064Z,102778.09
2023-01-09T14:55:03.444Z,102778.28
2023-01-09T14:57:34.944Z,102781.16
2023-01-09T15:00:20.867Z,102777.44
2023-01-09T15:02:54.060Z,102784.72
2023-01-09T15:05:29.146Z,102782.13
2023-01-09T15:08:03.828Z,102772.56
2023-01-09T15:10:37.462Z,102761.09
2023-01-09T15:13:11.090Z,102775.44
2023-01-09T15:15:48.225Z,102771.69
2023-01-09T15:18:25.479Z,102781.88
2023-01-09T15:21:04.024Z,102781.22
2023-01-09T15:23:32.712Z,102775.72
2023-01-09T15:26:30.148Z,102775.25
2023-01-09T15:29:15.660Z,102763.69
2023-01-09T15:32:01.834Z,102757.91
2023-01-09T15:34:33.421Z,102756.59
2023-01-09T15:37:03.425Z,102748.88
2023-01-09T15:39:37.145Z,102757.53
2023-01-09T15:42:39.971Z,102756.81
2023-01-09T15:45:22.928Z,102752.00
2023-01-09T15:47:51.602Z,102759.50
2023-01-09T15:50:30.093Z,102754.91
2023-01-09T15:52:58.539Z,102756.00
2023-01-09T15:55:39.281Z,102760.13
2023-01-09T15:58:30.807Z,102760.06
2023-01-09T16:01:03.366Z,102767.03
2023-01-09T16:03:31.867Z,102765.66
2023-01-09T16:06:08.859Z,102766.63
2023-01-09T16:08:42.701Z,102749.66
2023-01-09T16:11:24.772Z,102758.63
2023-01-09T16:13:54.139Z,102768.72
2023-01-09T19:29:12.425Z,102723.69
2023-01-09T19:31:43.267Z,102708.69
2023-01-09T19:34:13.960Z,102715.13
2023-01-09T19:36:48.037Z,102710.69
2023-01-09T19:39:17.006Z,102703.66
2023-01-09T19:41:46.489Z,102694.28
2023-01-09T19:44:17.338Z,102689.84
2023-01-09T19:46:46.859Z,102670.84
2023-01-09T19:49:16.376Z,102675.03
2023-01-09T19:51:46.611Z,102678.66
2023-01-09T19:54:15.756Z,102672.53
2023-01-09T19:56:46.197Z,102665.66
2023-01-09T19:59:16.253Z,102667.53
2023-01-09T20:01:46.025Z,102675.13
2023-01-09T20:04:16.045Z,102674.34
2023-01-09T20:06:49.835Z,102663.97
2023-01-09T20:09:27.675Z,102657.00
2023-01-09T20:12:01.684Z,102651.75
2023-01-09T20:14:31.389Z,102644.81
2023-01-09T20:17:01.259Z,102633.44
2023-01-09T20:19:32.695Z,102623.94
2023-01-09T20:22:03.581Z,102625.78
2023-01-09T20:24:32.748Z,102630.97
2023-01-09T20:27:01.625Z,102643.97
2023-01-09T20:29:30.904Z,102637.25
2023-01-09T20:32:02.136Z,102650.03
2023-01-09T20:34:31.634Z,102651.75
2023-01-09T20:37:00.383Z,102657.84
2023-01-09T20:39:29.938Z,102655.38
2023-01-09T20:41:58.515Z,102656.06
2023-01-09T20:44:27.594Z,102662.06
2023-01-09T20:46:57.225Z,102656.03
2023-01-09T20:49:26.105Z,102674.25
2023-01-09T20:51:55.494Z,102675.16
2023-01-09T20:54:24.529Z,102667.41
2023-01-09T20:56:54.797Z,102676.28
2023-01-09T20:59:26.691Z,102681.34
2023-01-09T21:01:57.139Z,102679.78
2023-01-09T21:04:26.401Z,102681.47
2023-01-09T21:06:55.987Z,102680.53
2023-01-09T21:09:26.442Z,102684.88
2023-01-09T21:11:56.041Z,102682.97
2023-01-09T21:14:24.403Z,102689.16
2023-01-09T21:16:55.297Z,102686.53
2023-01-09T21:19:25.438Z,102677.84
2023-01-09T21:21:54.273Z,102681.47
2023-01-09T21:24:25.351Z,102683.06
2023-01-09T21:26:53.808Z,102673.53
2023-01-09T21:29:24.736Z,102671.91
2023-01-09T21:31:55.498Z,102671.94
2023-01-09T21:34:26.452Z,102672.69
2023-01-09T21:36:56.045Z,102667.53
2023-01-09T21:39:25.656Z,102660.56
2023-01-09T21:42:14.911Z,102668.25
2023-01-09T21:45:02.955Z,102672.94
2023-01-09T21:47:35.953Z,102680.44
2023-01-09T21:50:04.496Z,102677.81
2023-01-09T21:52:37.821Z,102675.28
2023-01-09T21:55:07.268Z,102671.06
2023-01-09T21:57:36.688Z,102683.38
2023-01-09T22:00:05.780Z,102682.34
2023-01-09T22:02:37.547Z,102677.97
2023-01-09T22:05:07.689Z,102671.81
2023-01-09T22:07:36.271Z,102675.28
2023-01-09T22:10:06.375Z,102681.34
2023-01-09T22:12:36.009Z,102671.78
2023-01-09T22:15:07.819Z,102683.97
2023-01-09T22:17:36.172Z,102674.38
2023-01-09T22:20:05.461Z,102676.41
2023-01-09T22:22:35.085Z,102669.25
2023-01-09T22:25:06.034Z,102674.38
2023-01-09T22:27:34.236Z,102667.47
2023-01-09T22:30:03.481Z,102660.47
2023-01-09T22:32:35.402Z,102663.81
2023-01-09T22:35:03.279Z,102658.59
2023-01-09T22:37:33.469Z,102664.63
2023-01-09T22:40:03.443Z,102658.84
2023-01-09T22:42:32.745Z,102655.28
2023-01-09T22:45:04.481Z,102660.47
2023-01-09T22:47:33.174Z,102651.75
2023-01-09T22:50:02.569Z,102663.09
2023-01-09T22:52:31.309Z,102650.88
2023-01-09T22:55:00.711Z,102644.06
2023-01-09T22:57:29.310Z,102645.75
2023-01-09T22:59:57.437Z,102640.53
2023-01-09T23:02:25.361Z,102631.59
2023-01-09T23:05:00.839Z,102652.66
2023-01-09T23:07:29.376Z,102646.59
2023-01-09T23:10:01.285Z,102648.25
2023-01-09T23:12:30.250Z,102645.75
2023-01-09T23:14:59.405Z,102637.16
2023-01-09T23:17:28.226Z,102629.50
2023-01-09T23:19:57.499Z,102638.00
2023-01-09T23:22:26.182Z,102639.69
2023-01-09T23:24:55.097Z,102632.81
2023-01-09T23:27:27.170Z,102634.63
2023-01-09T23:29:55.136Z,102623.28
2023-01-09T23:32:23.262Z,102624.06
2023-01-09T23:34:53.269Z,102622.38
2023-01-09T23:37:23.213Z,102624.88
2023-01-09T23:39:52.742Z,102639.69
2023-01-09T23:42:40.927Z,102637.97
2023-01-09T23:45:10.084Z,102639.78
2023-01-09T23:47:38.199Z,102632.75
2023-01-09T23:50:09.310Z,102632.88
2023-01-09T23:52:38.324Z,102641.44
2023-01-09T23:55:07.050Z,102636.38
2023-01-09T23:57:35.189Z,102629.41
